createdAt,value
2022-09-21T00:00:41.451Z,4140
2022-09-21T00:05:53.895Z,4129
2022-09-21T00:11:06.189Z,4106
2022-09-21T00:16:18.836Z,4155
2022-09-21T00:21:31.271Z,4136
2022-09-21T00:26:43.673Z,4125
2022-09-21T00:31:56.054Z,4153
2022-09-21T00:37:08.588Z,4155
2022-09-21T00:42:20.946Z,4086
2022-09-21T00:47:33.175Z,4136
2022-09-21T00:52:45.517Z,4153
2022-09-21T00:57:57.901Z,4151
2022-09-21T01:03:10.236Z,4149
2022-09-21T01:08:22.496Z,4138
2022-09-21T01:13:34.756Z,4142
2022-09-21T01:18:47.195Z,4149
2022-09-21T01:23:59.499Z,4147
2022-09-21T01:29:11.835Z,4147
2022-09-21T01:34:23.994Z,4125
2022-09-21T01:39:36.334Z,4147
2022-09-21T01:44:48.612Z,4131
2022-09-21T01:50:00.954Z,4147
2022-09-21T01:55:13.598Z,4134
2022-09-21T02:00:26.715Z,4131
2022-09-21T02:05:39.035Z,4145
2022-09-21T02:10:51.487Z,4119
2022-09-21T02:16:03.836Z,4080
2022-09-21T02:21:16.279Z,4108
2022-09-21T02:26:28.560Z,4145
2022-09-21T02:31:41.193Z,4114
2022-09-21T02:36:53.488Z,4105
2022-09-21T02:42:05.901Z,4144
2022-09-21T02:47:18.045Z,4121
2022-09-21T02:52:30.463Z,4103
2022-09-21T02:57:43.215Z,4123
2022-09-21T03:02:55.515Z,4140
2022-09-21T03:08:07.829Z,4140
2022-09-21T03:13:20.291Z,4045
2022-09-21T03:18:32.709Z,4106
2022-09-21T03:23:45.020Z,4140
2022-09-21T03:28:57.626Z,4080
2022-09-21T03:34:09.959Z,4093
2022-09-21T03:39:22.488Z,4073
2022-09-21T03:44:34.725Z,4099
2022-09-21T03:49:47.007Z,4116
2022-09-21T03:54:59.553Z,4105
2022-09-21T04:00:11.787Z,4078
2022-09-21T04:05:24.191Z,4134
2022-09-21T04:10:36.610Z,4099
2022-09-21T04:15:49.168Z,4114
2022-09-21T04:21:01.370Z,4105
2022-09-21T04:26:13.790Z,4078
2022-09-21T04:31:26.434Z,4131
2022-09-21T04:36:38.749Z,4116
2022-09-21T04:41:51.154Z,4136
2022-09-21T04:47:03.348Z,4134
2022-09-21T04:52:18.942Z,4093
2022-09-21T04:57:28.151Z,4034
2022-09-21T05:02:40.700Z,4071
2022-09-21T05:07:53.039Z,4067
2022-09-21T05:13:05.280Z,4080
2022-09-21T05:18:17.884Z,4038
2022-09-21T05:23:30.067Z,4086
2022-09-21T05:28:42.510Z,4082
2022-09-21T05:33:54.972Z,4088
2022-09-21T05:39:07.361Z,4112
2022-09-21T05:44:19.789Z,4092
2022-09-21T05:49:32.145Z,4108
2022-09-21T05:54:44.626Z,4116
2022-09-21T05:59:57.165Z,4071
2022-09-21T06:05:09.639Z,4103
2022-09-21T06:10:22.219Z,4097
2022-09-21T06:15:34.535Z,4129
2022-09-21T06:20:46.902Z,4108
2022-09-21T06:25:59.192Z,4049
2022-09-21T06:31:11.424Z,4051
2022-09-21T06:36:23.833Z,4132
2022-09-21T06:41:36.039Z,4084
2022-09-21T06:46:48.450Z,4088
2022-09-21T06:52:04.027Z,4082
2022-09-21T06:57:16.388Z,4134
2022-09-21T07:02:28.828Z,4112
2022-09-21T07:07:41.256Z,4110
2022-09-21T07:12:53.935Z,4051
2022-09-21T07:18:06.362Z,4132
2022-09-21T07:23:18.744Z,4136
2022-09-21T07:28:31.059Z,4118
2022-09-21T07:33:43.374Z,4114
2022-09-21T07:38:55.834Z,4095
2022-09-21T07:44:08.185Z,4112
2022-09-21T07:49:20.750Z,4097
2022-09-21T07:54:33.336Z,4136
2022-09-21T07:59:45.699Z,4052
2022-09-21T08:04:58.138Z,4095
2022-09-21T08:10:10.279Z,4125
2022-09-21T08:15:44.301Z,4086
2022-09-21T08:20:35.222Z,3935
2022-09-21T08:25:47.764Z,4112
2022-09-21T08:31:00.408Z,4149
2022-09-21T08:36:12.682Z,4129
2022-09-21T08:41:25.241Z,4153
2022-09-21T08:46:37.609Z,4142
2022-09-21T08:51:50.277Z,4151
2022-09-21T08:57:05.607Z,4157
2022-09-21T09:02:15.359Z,4142
2022-09-21T09:07:27.741Z,4129
2022-09-21T09:17:53.141Z,4158
2022-09-21T09:23:05.430Z,4149
2022-09-21T09:28:17.856Z,4153
2022-09-21T09:33:30.266Z,4155
2022-09-21T09:38:42.514Z,4160
2022-09-21T09:43:54.931Z,4164
2022-09-21T09:49:07.442Z,4170
2022-09-21T09:54:20.089Z,4153
2022-09-21T09:59:32.727Z,4157
2022-09-21T10:04:45.554Z,4194
2022-09-21T10:09:57.971Z,4196
2022-09-21T10:15:10.412Z,4198
2022-09-21T10:20:22.869Z,4192
2022-09-21T10:25:39.478Z,4185
2022-09-21T10:30:47.610Z,4198
2022-09-21T10:35:59.939Z,4194
2022-09-21T10:41:12.240Z,4199
2022-09-21T10:46:24.737Z,4183
2022-09-21T10:51:37.006Z,4192
2022-09-21T10:56:49.563Z,4203
2022-09-21T11:02:01.894Z,4209
2022-09-21T11:07:14.287Z,4196
2022-09-21T11:12:26.496Z,4192
2022-09-21T11:17:38.699Z,4190
2022-09-21T11:22:54.236Z,4207
2022-09-21T11:28:03.726Z,4212
2022-09-21T11:33:16.187Z,4214
2022-09-21T11:38:32.182Z,4218
2022-09-21T11:43:41.241Z,4218
2022-09-21T11:48:53.369Z,4214
2022-09-21T11:54:05.615Z,4205
2022-09-21T11:59:17.786Z,4201
2022-09-21T12:04:29.977Z,4201
2022-09-21T12:09:42.584Z,4211
2022-09-21T12:14:54.832Z,4205
2022-09-21T12:20:07.355Z,4222
2022-09-21T12:25:19.931Z,4222
2022-09-21T12:30:32.146Z,4218
2022-09-21T12:35:44.461Z,4211
2022-09-21T12:40:56.698Z,4209
2022-09-21T12:46:09.092Z,4214
2022-09-21T12:51:21.217Z,4207
2022-09-21T12:56:33.867Z,4201
2022-09-21T13:01:46.356Z,4205
2022-09-21T13:06:58.897Z,4227
2022-09-21T13:12:11.248Z,4218
2022-09-21T13:17:23.367Z,4224
2022-09-21T13:22:35.795Z,4227
2022-09-21T13:27:48.223Z,4216
2022-09-21T13:33:00.446Z,4225
2022-09-21T13:38:12.657Z,4222
2022-09-21T13:43:24.927Z,4212
2022-09-21T13:48:37.114Z,4209
2022-09-21T13:53:49.308Z,4203
2022-09-21T13:59:01.735Z,4209
2022-09-21T14:04:14.791Z,4220
2022-09-21T14:09:27.518Z,4218
2022-09-21T14:14:40.143Z,4233
2022-09-21T14:19:52.890Z,4227
2022-09-21T14:25:05.369Z,4235
2022-09-21T14:30:17.858Z,4233
2022-09-21T14:35:33.515Z,4242
2022-09-21T14:40:42.665Z,4229
2022-09-21T14:45:55.031Z,4246
2022-09-21T14:51:07.417Z,4205
2022-09-21T14:56:19.750Z,4242
2022-09-21T15:01:31.799Z,4229
2022-09-21T15:06:43.930Z,4229
2022-09-21T15:11:56.002Z,4224
2022-09-21T15:17:08.264Z,4220
2022-09-21T15:22:20.965Z,4216
2022-09-21T15:27:33.790Z,4231
2022-09-21T15:32:46.133Z,4231
2022-09-21T15:37:58.741Z,4237
2022-09-21T15:43:11.063Z,4205
2022-09-21T15:48:23.405Z,4192
2022-09-21T15:53:35.824Z,4224
2022-09-21T15:58:48.551Z,4238
2022-09-21T16:04:01.260Z,4209
2022-09-21T16:09:13.720Z,4229
2022-09-21T16:14:26.466Z,4220
2022-09-21T16:19:39.015Z,4233
2022-09-21T16:24:51.418Z,4253
2022-09-21T16:30:03.813Z,4233
2022-09-21T16:35:16.593Z,4220
2022-09-21T16:40:28.939Z,4212
2022-09-21T16:45:40.996Z,4240
2022-09-21T16:50:53.778Z,4140
2022-09-21T16:56:06.158Z,4237
2022-09-21T17:01:18.110Z,4188
2022-09-21T17:06:30.319Z,4220
2022-09-21T17:11:42.708Z,4227
2022-09-21T17:16:55.046Z,4205
2022-09-21T17:22:07.280Z,4186
2022-09-21T17:27:19.476Z,4175
2022-09-21T17:32:35.232Z,4175
2022-09-21T17:37:44.055Z,4198
2022-09-21T17:42:56.242Z,4188
2022-09-21T17:48:08.757Z,4196
2022-09-21T17:53:21.114Z,4194
2022-09-21T17:58:33.423Z,4171
2022-09-21T18:03:45.850Z,4171
2022-09-21T18:08:58.262Z,4144
2022-09-21T18:14:10.496Z,4190
2022-09-21T18:19:23.112Z,4190
2022-09-21T18:24:35.670Z,4134
2022-09-21T18:29:47.732Z,4153
2022-09-21T18:34:59.984Z,4140
2022-09-21T18:40:12.367Z,4198
2022-09-21T18:45:24.766Z,4185
2022-09-21T18:50:36.867Z,4186
2022-09-21T18:55:49.323Z,4171
2022-09-21T19:01:02.018Z,4196
2022-09-21T19:06:14.352Z,4188
2022-09-21T19:11:26.670Z,4158
2022-09-21T19:16:39.203Z,4188
2022-09-21T19:21:51.722Z,4177
2022-09-21T19:27:03.949Z,4157
2022-09-21T19:32:16.476Z,4155
2022-09-21T19:37:29.113Z,4185
2022-09-21T19:42:41.455Z,4170
2022-09-21T19:47:53.654Z,4160
2022-09-21T19:53:06.066Z,4192
2022-09-21T19:58:18.424Z,4181
2022-09-21T20:03:31.668Z,4181
2022-09-21T20:08:43.105Z,4194
2022-09-21T20:13:55.385Z,4149
2022-09-21T20:19:07.634Z,4179
2022-09-21T20:24:20.206Z,4158
2022-09-21T20:29:32.707Z,4170
2022-09-21T20:34:44.723Z,4181
2022-09-21T20:39:57.049Z,4131
2022-09-21T20:45:09.348Z,4188
2022-09-21T20:50:21.506Z,4118
2022-09-21T20:55:34.063Z,4173
2022-09-21T21:00:46.387Z,4173
2022-09-21T21:05:58.704Z,4144
2022-09-21T21:11:10.879Z,4121
2022-09-21T21:16:23.342Z,4138
2022-09-21T21:21:35.793Z,4177
2022-09-21T21:27:01.625Z,4158
2022-09-21T21:32:00.611Z,4183
2022-09-21T21:37:12.843Z,4144
2022-09-21T21:42:25.268Z,4177
2022-09-21T21:47:40.084Z,4181
2022-09-21T21:52:49.937Z,4166
2022-09-21T21:58:02.259Z,4179
2022-09-21T22:03:14.676Z,4123
2022-09-21T22:08:27.195Z,4166
2022-09-21T22:13:39.713Z,4164
2022-09-21T22:18:52.164Z,4162
2022-09-21T22:24:04.427Z,4175
2022-09-21T22:29:16.797Z,4162
2022-09-21T22:34:29.087Z,4177
2022-09-21T22:39:41.442Z,4173
2022-09-21T22:44:54.168Z,4175
2022-09-21T22:50:06.525Z,4175
2022-09-21T22:55:18.833Z,4173
2022-09-21T23:00:31.152Z,4173
2022-09-21T23:05:43.569Z,4145
2022-09-21T23:10:56.058Z,4173
2022-09-21T23:16:08.579Z,4149
2022-09-21T23:21:20.942Z,4119
2022-09-21T23:26:33.382Z,4147
2022-09-21T23:31:46.474Z,4171
2022-09-21T23:36:58.488Z,4171
2022-09-21T23:42:10.767Z,4171
2022-09-21T23:47:23.360Z,4131
2022-09-21T23:52:35.914Z,4125
2022-09-21T23:57:48.249Z,4170
